NB!: WXSIM ilma ennustus töötab ja kosub(kasutab ka omaenda kodust ilmajaama(Froggit) kogutud andmeid). Vt. kõrval menüüs: WXSIM...! / WXSIM (Weather Simulator) on võimas, tõeliselt ainulaadne tööriist ilma ennustamiseks või lihtsalt uurimiseks. Selle peamine eesmärk on pakkuda täpseid ja üksikasjalikke prognoose, mis on kohandatud teie konkreetse asukoha jaoks, kasutades imporditud reaalajas ja mudeliandmete (Internetist ja valikuliselt teie kodusest ilmajaamast) kombinatsiooni ning oma sisemist modelleerimisvõimalust. See võib isegi oma prognoose parandada, õppides varasematest tulemustest!

There is a communication problem. Go directly to the Meteoalarm site : www.meteoalarm.eu and check the Weather-warnings there .

WXSIM prognoos (Kasti/Vatsküla/Vaivere -Saaremaa)



/home/edgarnuum/domains/hotserv.eq.ee/public_html/nautical/metar/metarDisplay.php

Nearby METAR Reports

   
EEKE - Kuressaare, Estonia
Distance from station: SE 3 km
Uuendatud: 09-12-2022 04:50
Few Clouds  
Few Clouds  
   Tuul: SW 2.6 m/s
Tuul: SW 2.6 m/s
Temperatuur: -3°C
Wind Chill: -7°C
Kastepunkt: -3°C
Niiskus: 100%
Baromeeter: 1006 hPa
Pilvisus: Few Clouds
Nähtavus: 10 km
Cloud details: Few Clouds 823 m
EEKE 090250Z AUTO 22005KT 190V250 9999NDV FEW027 M03/M03 Q1006
EEKA - Kardla, Estonia
Distance from station: NNE 84 km
Uuendatud: 08-12-2022 18:20
NOT Current
Mostly Cloudy  
Mostly Cloudy  
   Tuul: SSW 2.1 m/s
Tuul: SSW 2.1 m/s
Temperatuur: -2°C
Wind Chill: -5°C
Kastepunkt: -2°C
Niiskus: 100%
Baromeeter: 1002 hPa
Pilvisus: Mostly Cloudy
Nähtavus: More than 10 km
Cloud details: Mostly Cloudy 1005.8 m
EEKA 081620Z 21004KT 170V240 9999 BKN033 M02/M02 Q1002
EEEI - Harjumaa Amari, Estonia
Distance from station: NE 151 km
Uuendatud: 09-12-2022 04:50
Clear  
Clear  
   Tuul: SSE 2.1 m/s
Tuul: SSE 2.1 m/s
Temperatuur: -9°C
Wind Chill: -13°C
Kastepunkt: -10°C
Niiskus: 93%
Baromeeter: 1006 hPa
Nähtavus: More than 10 km
Cloud details: Clear m
EEEI 090250Z AUTO 16004KT 130V190 CAVOK M09/M10 Q1006
EETN - Tallinn L. Meri, Estonia
Distance from station: NE 187 km
Uuendatud: 09-12-2022 04:50
Clear  
Clear  
   Tuul: SSE 1.5 m/s
Tuul: SSE 1.5 m/s
Temperatuur: -6°C
Wind Chill: -9°C
Kastepunkt: -6°C
Niiskus: 100%
Baromeeter: 1006 hPa
Nähtavus: More than 10 km
Cloud details: Clear m
EETN 090250Z 16003KT CAVOK M06/M06 Q1006
EETU - Tartu, Estonia
Distance from station: E 245 km
Uuendatud: 09-12-2022 04:50
Light Snow  
Light Snow  
   Tuul: SSE 3.6 m/s
Tuul: SSE 3.6 m/s
Nähtavus: 2 km
EETU 090250Z AUTO 15007KT 2300 -SN ///021/// M02/M03 Q1007
 

Script developed by  Saratoga-weather.org Adapted for the template by  Weerstation Leuven

hit counter